createdAt,value
2022-09-30T00:01:26.712Z,24.40
2022-09-30T00:03:58.836Z,24.40
2022-09-30T00:06:31.525Z,24.40
2022-09-30T00:09:05.127Z,24.40
2022-09-30T00:11:40.518Z,24.40
2022-09-30T00:14:16.844Z,24.40
2022-09-30T00:16:49.520Z,24.40
2022-09-30T00:19:23.488Z,24.40
2022-09-30T00:21:53.143Z,24.50
2022-09-30T00:24:23.780Z,24.40
2022-09-30T00:26:54.537Z,24.40
2022-09-30T00:29:26.521Z,24.50
2022-09-30T00:31:57.183Z,24.40
2022-09-30T00:34:27.940Z,24.40
2022-09-30T00:36:59.130Z,24.50
2022-09-30T00:39:32.214Z,24.50
2022-09-30T00:42:05.554Z,24.50
2022-09-30T00:44:38.787Z,24.50
2022-09-30T00:47:12.104Z,24.50
2022-09-30T00:49:43.059Z,24.50
2022-09-30T00:52:16.980Z,24.50
2022-09-30T00:54:48.053Z,24.50
2022-09-30T00:57:19.241Z,24.50
2022-09-30T00:59:52.786Z,24.50
2022-09-30T01:02:24.942Z,24.50
2022-09-30T01:04:56.269Z,24.50
2022-09-30T01:07:27.863Z,24.50
2022-09-30T01:10:00.042Z,24.60
2022-09-30T01:12:30.660Z,24.60
2022-09-30T01:15:03.330Z,24.60
2022-09-30T01:17:33.566Z,24.60
2022-09-30T01:20:06.691Z,24.60
2022-09-30T01:22:42.055Z,24.60
2022-09-30T01:25:11.091Z,24.60
2022-09-30T01:27:44.257Z,24.60
2022-09-30T01:30:16.042Z,24.60
2022-09-30T01:32:50.438Z,24.60
2022-09-30T01:35:23.657Z,24.60
2022-09-30T01:37:56.769Z,24.60
2022-09-30T01:40:31.273Z,24.60
2022-09-30T01:43:04.540Z,24.60
2022-09-30T01:45:39.089Z,24.60
2022-09-30T01:48:12.258Z,24.60
2022-09-30T01:50:45.365Z,24.60
2022-09-30T01:53:18.659Z,24.70
2022-09-30T01:55:51.889Z,24.60
2022-09-30T01:58:26.493Z,24.60
2022-09-30T02:00:59.782Z,24.60
2022-09-30T02:03:33.052Z,24.70
2022-09-30T02:06:04.721Z,24.60
2022-09-30T02:08:37.919Z,24.60
2022-09-30T02:11:11.314Z,24.60
2022-09-30T02:13:44.438Z,24.70
2022-09-30T02:16:18.922Z,24.70
2022-09-30T02:18:53.262Z,24.70
2022-09-30T02:21:26.442Z,24.80
2022-09-30T02:24:01.058Z,24.80
2022-09-30T02:26:37.925Z,24.80
2022-09-30T02:29:08.681Z,24.80
2022-09-30T02:31:42.334Z,24.80
2022-09-30T02:34:15.614Z,24.90
2022-09-30T02:36:47.179Z,24.90
2022-09-30T02:39:20.267Z,24.90
2022-09-30T02:41:53.573Z,24.90
2022-09-30T02:44:24.364Z,25.00
2022-09-30T02:46:55.938Z,25.00
2022-09-30T02:49:29.033Z,25.00
2022-09-30T02:54:59.084Z,25.00
2022-09-30T02:57:32.143Z,25.10
2022-09-30T03:00:03.845Z,25.20
2022-09-30T03:02:35.507Z,25.20
2022-09-30T03:05:06.785Z,25.20
2022-09-30T03:07:38.528Z,25.20
2022-09-30T03:10:11.584Z,25.20
2022-09-30T03:12:44.846Z,25.30
2022-09-30T03:15:17.929Z,25.30
2022-09-30T03:17:51.079Z,25.30
2022-09-30T03:20:24.236Z,25.30
2022-09-30T03:22:57.364Z,25.40
2022-09-30T03:25:30.574Z,25.40
2022-09-30T03:28:03.607Z,25.40
2022-09-30T03:30:36.667Z,25.50
2022-09-30T03:33:08.450Z,25.50
2022-09-30T03:35:40.109Z,25.50
2022-09-30T03:38:11.702Z,25.60
2022-09-30T03:40:41.730Z,25.60
2022-09-30T03:43:14.946Z,25.60
2022-09-30T03:45:48.711Z,25.70
2022-09-30T03:48:20.649Z,25.60
2022-09-30T03:50:51.771Z,25.60
2022-09-30T03:53:23.122Z,25.70
2022-09-30T03:55:55.257Z,25.70
2022-09-30T03:58:26.085Z,25.70
2022-09-30T04:00:58.345Z,25.70
2022-09-30T04:03:29.576Z,25.80
2022-09-30T04:06:00.477Z,25.80
2022-09-30T04:08:33.888Z,25.80
2022-09-30T04:11:03.255Z,25.80
2022-09-30T04:13:34.081Z,25.90
2022-09-30T04:16:04.820Z,26.00
2022-09-30T04:18:37.162Z,26.10
2022-09-30T04:21:10.072Z,26.30
2022-09-30T04:23:42.108Z,26.30
2022-09-30T04:26:15.353Z,26.40
2022-09-30T04:28:46.097Z,26.40
2022-09-30T04:31:19.339Z,26.40
2022-09-30T04:33:51.582Z,26.40
2022-09-30T04:36:23.656Z,26.40
2022-09-30T04:38:55.089Z,26.30
2022-09-30T04:41:26.327Z,26.30
2022-09-30T04:43:57.987Z,26.30
2022-09-30T04:46:28.609Z,26.30
2022-09-30T04:48:59.158Z,26.20
2022-09-30T04:51:31.215Z,26.30
2022-09-30T04:54:02.015Z,26.30
2022-09-30T04:56:33.399Z,26.40
2022-09-30T04:59:04.090Z,26.40
2022-09-30T05:01:34.620Z,26.50
2022-09-30T05:04:05.538Z,26.50
2022-09-30T05:06:36.270Z,26.40
2022-09-30T05:09:07.003Z,26.40
2022-09-30T05:11:39.115Z,26.40
2022-09-30T05:14:10.686Z,26.30
2022-09-30T05:16:41.955Z,26.30
2022-09-30T05:19:12.655Z,26.40
2022-09-30T05:21:44.226Z,26.40
2022-09-30T05:24:15.081Z,26.40
2022-09-30T05:26:45.977Z,26.50
2022-09-30T05:29:16.684Z,26.50
2022-09-30T05:31:47.319Z,26.50
2022-09-30T05:34:18.048Z,26.50
2022-09-30T05:36:48.895Z,26.60
2022-09-30T05:39:19.604Z,26.70
2022-09-30T05:41:50.205Z,26.80
2022-09-30T05:44:20.827Z,26.80
2022-09-30T05:46:51.581Z,26.80
2022-09-30T05:49:23.280Z,26.80
2022-09-30T05:51:54.631Z,26.80
2022-09-30T05:54:25.489Z,26.80
2022-09-30T05:56:56.503Z,26.90
2022-09-30T05:59:27.430Z,27.10
2022-09-30T06:01:58.380Z,27.20
2022-09-30T06:04:29.174Z,27.30
2022-09-30T06:07:00.146Z,27.30
2022-09-30T06:09:30.823Z,27.40
2022-09-30T06:12:01.359Z,27.30
2022-09-30T06:14:32.083Z,27.30
2022-09-30T06:17:03.273Z,27.20
2022-09-30T06:19:34.178Z,27.10
2022-09-30T06:22:05.103Z,26.90
2022-09-30T06:24:35.927Z,26.80
2022-09-30T06:27:07.398Z,26.80
2022-09-30T06:29:45.265Z,26.80
2022-09-30T06:32:10.499Z,26.80
2022-09-30T06:34:41.711Z,26.70
2022-09-30T06:37:32.017Z,26.80
2022-09-30T06:40:02.963Z,26.80
2022-09-30T06:42:34.071Z,26.80
2022-09-30T06:45:04.834Z,27.00
2022-09-30T06:47:35.572Z,27.20
2022-09-30T06:50:07.992Z,27.30
2022-09-30T06:52:38.941Z,27.50
2022-09-30T06:55:10.184Z,27.60
2022-09-30T06:57:59.856Z,27.60
2022-09-30T07:00:31.528Z,27.60
2022-09-30T07:03:02.605Z,27.60
2022-09-30T07:05:35.090Z,27.50
2022-09-30T07:08:07.971Z,27.40
2022-09-30T07:10:39.274Z,27.20
2022-09-30T07:13:09.963Z,27.10
2022-09-30T07:15:40.752Z,26.90
2022-09-30T07:18:11.524Z,26.70
2022-09-30T07:20:42.430Z,26.60
2022-09-30T07:23:13.260Z,26.50
2022-09-30T07:25:45.140Z,26.40
2022-09-30T07:28:15.740Z,26.40
2022-09-30T07:30:50.553Z,26.30
2022-09-30T07:33:21.136Z,26.30
2022-09-30T07:35:54.183Z,26.20
2022-09-30T07:38:27.128Z,26.20
2022-09-30T07:41:00.280Z,26.10
2022-09-30T07:43:34.708Z,26.10
2022-09-30T07:46:11.326Z,26.10
2022-09-30T07:48:45.408Z,26.10
2022-09-30T07:51:18.562Z,26.10
2022-09-30T07:53:51.796Z,26.10
2022-09-30T07:56:23.615Z,26.10
2022-09-30T07:58:58.146Z,26.10
2022-09-30T08:01:33.370Z,26.10
2022-09-30T08:04:06.581Z,26.10
2022-09-30T08:06:40.207Z,26.20
2022-09-30T08:09:12.056Z,26.20
2022-09-30T08:11:44.540Z,26.30
2022-09-30T08:14:17.829Z,26.30
2022-09-30T08:16:48.530Z,26.40
2022-09-30T08:19:22.197Z,26.50
2022-09-30T08:21:55.261Z,26.50
2022-09-30T08:24:27.449Z,26.50
2022-09-30T08:26:58.959Z,26.50
2022-09-30T08:30:02.287Z,26.50
2022-09-30T08:32:02.072Z,26.50
2022-09-30T08:34:34.280Z,26.50
2022-09-30T08:37:09.050Z,26.40
2022-09-30T08:39:37.997Z,26.40
2022-09-30T08:42:32.296Z,26.40
2022-09-30T08:44:44.522Z,26.30
2022-09-30T08:47:18.168Z,26.20
2022-09-30T08:49:51.402Z,26.30
2022-09-30T08:52:30.690Z,26.20
2022-09-30T08:54:58.801Z,26.20
2022-09-30T08:57:32.013Z,26.20
2022-09-30T09:00:06.489Z,26.30
2022-09-30T09:02:39.919Z,26.30
2022-09-30T09:05:12.867Z,26.30
2022-09-30T09:07:44.606Z,26.30
2022-09-30T09:10:17.630Z,26.40
2022-09-30T09:12:50.688Z,26.40
2022-09-30T09:15:23.712Z,26.50
2022-09-30T09:18:21.498Z,26.50
2022-09-30T09:20:31.961Z,26.50
2022-09-30T09:23:05.373Z,26.60
2022-09-30T09:25:36.892Z,26.60
2022-09-30T09:28:10.659Z,26.60
2022-09-30T09:30:44.603Z,26.70
2022-09-30T09:33:18.355Z,26.70
2022-09-30T09:35:51.550Z,26.70
2022-09-30T09:38:25.935Z,26.80
2022-09-30T09:40:59.124Z,26.80
2022-09-30T09:43:32.272Z,26.80
2022-09-30T09:46:05.400Z,26.80
2022-09-30T09:48:36.621Z,26.80
2022-09-30T09:51:10.094Z,26.80
2022-09-30T09:53:43.211Z,26.80
2022-09-30T09:56:17.620Z,26.80
2022-09-30T10:01:25.093Z,26.80
2022-09-30T10:03:58.839Z,26.90
2022-09-30T10:06:30.837Z,26.80
2022-09-30T10:09:01.572Z,26.80
2022-09-30T10:11:32.490Z,26.80
2022-09-30T10:14:04.147Z,26.80
2022-09-30T10:16:37.038Z,26.80
2022-09-30T10:19:10.532Z,26.80
2022-09-30T10:21:41.833Z,26.80
2022-09-30T10:24:14.952Z,26.80
2022-09-30T10:26:48.900Z,26.80
2022-09-30T10:29:22.455Z,26.80
2022-09-30T10:31:58.965Z,26.80
2022-09-30T10:34:29.467Z,26.80
2022-09-30T10:37:01.930Z,26.80
2022-09-30T10:39:35.249Z,26.80
2022-09-30T10:42:09.664Z,26.80
2022-09-30T10:44:42.715Z,26.80
2022-09-30T10:47:15.881Z,26.80
2022-09-30T10:49:49.160Z,26.70
2022-09-30T10:52:20.752Z,26.70
2022-09-30T10:54:55.261Z,26.70
2022-09-30T10:57:26.813Z,26.70
2022-09-30T10:59:59.895Z,26.60
2022-09-30T11:02:31.357Z,26.50
2022-09-30T11:05:03.189Z,26.40
2022-09-30T11:07:36.226Z,26.40
2022-09-30T11:10:09.237Z,26.30
2022-09-30T11:12:42.348Z,26.30
2022-09-30T11:15:13.798Z,26.20
2022-09-30T11:17:45.431Z,26.20
2022-09-30T11:20:19.655Z,26.20
2022-09-30T11:22:52.796Z,26.20
2022-09-30T11:25:26.065Z,26.20
2022-09-30T11:28:02.002Z,26.20
2022-09-30T11:30:35.544Z,26.10
2022-09-30T11:33:09.739Z,26.10
2022-09-30T11:38:30.347Z,26.00
2022-09-30T11:41:03.393Z,26.00
2022-09-30T11:43:36.427Z,26.00
2022-09-30T11:46:15.892Z,25.90
2022-09-30T11:48:47.600Z,25.90
2022-09-30T11:51:20.729Z,25.90
2022-09-30T11:53:54.392Z,25.90
2022-09-30T11:56:27.585Z,25.90
2022-09-30T11:59:00.804Z,25.90
2022-09-30T12:01:34.446Z,25.90
2022-09-30T12:04:06.604Z,25.90
2022-09-30T12:09:33.996Z,25.90
2022-09-30T12:15:00.425Z,25.80
2022-09-30T12:17:33.717Z,25.80
2022-09-30T12:23:00.248Z,25.80
2022-09-30T12:25:33.752Z,25.70
2022-09-30T12:34:00.106Z,25.60
2022-09-30T12:42:23.846Z,25.50
2022-09-30T12:50:46.512Z,25.40
2022-09-30T12:56:23.257Z,25.30
2022-09-30T12:59:10.382Z,25.40
2022-09-30T13:01:56.172Z,25.30
2022-09-30T13:04:32.781Z,25.40
2022-09-30T13:07:06.066Z,25.40
2022-09-30T13:12:44.455Z,25.40
2022-09-30T13:15:27.899Z,25.40
2022-09-30T13:18:00.816Z,25.40
2022-09-30T13:20:44.022Z,25.40
2022-09-30T13:23:17.868Z,25.40
2022-09-30T13:28:44.430Z,25.40
2022-09-30T13:31:22.092Z,25.30
2022-09-30T13:34:03.892Z,25.30
2022-09-30T13:36:37.139Z,25.30
2022-09-30T13:39:12.298Z,25.30
2022-09-30T13:44:44.494Z,25.30
2022-09-30T13:50:19.034Z,25.30
2022-09-30T13:52:56.092Z,25.30
2022-09-30T14:07:00.135Z,25.20
2022-09-30T14:09:37.610Z,25.20
2022-09-30T14:12:11.673Z,25.30
2022-09-30T14:14:44.676Z,25.30
2022-09-30T14:20:12.108Z,25.30
2022-09-30T14:25:42.488Z,25.30
2022-09-30T14:33:57.986Z,25.30
2022-09-30T14:36:33.970Z,25.30
2022-09-30T14:39:09.588Z,25.30
2022-09-30T14:41:57.895Z,25.30
2022-09-30T14:44:31.568Z,25.30
2022-09-30T14:47:03.812Z,25.30
2022-09-30T14:49:38.673Z,25.30
2022-09-30T14:52:10.597Z,25.30
2022-09-30T14:54:44.996Z,25.30
2022-09-30T14:57:18.611Z,25.30
2022-09-30T14:59:49.133Z,25.30
2022-09-30T15:02:21.819Z,25.30
2022-09-30T15:04:59.149Z,25.30
2022-09-30T15:07:29.987Z,25.30
2022-09-30T15:10:03.029Z,25.30
2022-09-30T15:12:34.363Z,25.30
2022-09-30T15:15:05.312Z,25.30
2022-09-30T15:17:38.416Z,25.30
2022-09-30T15:20:11.595Z,25.30
2022-09-30T15:22:42.244Z,25.30
2022-09-30T15:25:14.525Z,25.20
2022-09-30T15:27:46.544Z,25.20
2022-09-30T15:30:19.317Z,25.30
2022-09-30T15:32:53.770Z,25.20
2022-09-30T15:35:25.385Z,25.30
2022-09-30T15:37:56.600Z,25.20
2022-09-30T15:40:47.343Z,25.20
2022-09-30T15:43:17.694Z,25.20
2022-09-30T15:45:49.770Z,25.20
2022-09-30T15:48:21.258Z,25.20
2022-09-30T15:50:54.939Z,25.20
2022-09-30T15:53:29.443Z,25.20
2022-09-30T15:56:06.808Z,25.20
2022-09-30T15:58:40.214Z,25.10
2022-09-30T16:01:16.589Z,25.10
2022-09-30T16:03:49.321Z,25.10
2022-09-30T16:06:23.715Z,25.20
2022-09-30T16:09:28.663Z,25.10
2022-09-30T16:11:48.066Z,25.10
2022-09-30T16:14:17.089Z,25.10
2022-09-30T16:16:50.422Z,25.10
2022-09-30T16:19:22.652Z,25.10
2022-09-30T16:22:07.665Z,25.10
2022-09-30T16:24:39.685Z,25.10
2022-09-30T16:27:12.910Z,25.10
2022-09-30T16:29:44.900Z,25.10
2022-09-30T16:32:16.654Z,25.20
2022-09-30T16:34:48.587Z,25.10
2022-09-30T16:37:22.244Z,25.10
2022-09-30T16:39:55.592Z,25.10
2022-09-30T16:42:26.319Z,25.10
2022-09-30T16:44:58.285Z,25.10
2022-09-30T16:47:28.942Z,25.10
2022-09-30T16:50:02.256Z,25.10
2022-09-30T16:52:32.539Z,25.10
2022-09-30T16:55:06.379Z,25.00
2022-09-30T16:57:37.026Z,25.10
2022-09-30T17:00:09.074Z,25.00
2022-09-30T17:02:39.706Z,25.00
2022-09-30T17:05:12.831Z,25.10
2022-09-30T17:07:45.133Z,25.00
2022-09-30T17:10:19.465Z,25.00
2022-09-30T17:12:51.391Z,25.00
2022-09-30T17:15:23.148Z,25.00
2022-09-30T17:18:05.430Z,25.00
2022-09-30T17:20:47.506Z,25.00
2022-09-30T17:23:24.173Z,25.00
2022-09-30T17:25:51.616Z,25.00
2022-09-30T17:28:27.865Z,25.00
2022-09-30T17:30:57.988Z,25.00
2022-09-30T17:36:23.342Z,25.00
2022-09-30T17:39:01.542Z,25.00
2022-09-30T17:41:33.929Z,24.90
2022-09-30T17:44:04.884Z,24.90
2022-09-30T17:46:40.421Z,24.90
2022-09-30T17:49:13.543Z,25.00
2022-09-30T17:51:44.148Z,25.00
2022-09-30T17:54:26.910Z,25.00
2022-09-30T17:57:16.993Z,25.00
2022-09-30T17:59:48.578Z,25.00
2022-09-30T18:02:21.837Z,25.00
2022-09-30T18:04:52.512Z,25.00
2022-09-30T18:07:26.806Z,25.00
2022-09-30T18:10:00.232Z,25.00
2022-09-30T18:12:33.106Z,25.00
2022-09-30T18:15:02.927Z,25.00
2022-09-30T18:17:33.812Z,25.00
2022-09-30T18:20:04.600Z,25.00
2022-09-30T18:22:35.308Z,25.00
2022-09-30T18:25:11.698Z,25.00
2022-09-30T18:27:45.361Z,25.00
2022-09-30T18:30:16.355Z,25.00
2022-09-30T18:32:49.970Z,25.00
2022-09-30T18:35:22.988Z,25.00
2022-09-30T18:37:54.583Z,25.00
2022-09-30T18:40:27.580Z,25.00
2022-09-30T18:43:00.301Z,25.00
2022-09-30T18:45:33.340Z,25.00
2022-09-30T18:48:04.564Z,25.00
2022-09-30T18:50:38.400Z,25.00
2022-09-30T18:53:10.627Z,25.00
2022-09-30T18:55:45.177Z,25.00
2022-09-30T18:58:17.726Z,25.00
2022-09-30T19:00:48.845Z,25.00
2022-09-30T19:03:20.180Z,25.00
2022-09-30T19:05:51.187Z,25.00
2022-09-30T19:08:22.789Z,25.00
2022-09-30T19:10:55.007Z,25.00
2022-09-30T19:13:26.877Z,25.00
2022-09-30T19:15:57.522Z,25.00
2022-09-30T19:18:31.256Z,25.00
2022-09-30T19:21:06.300Z,25.00
2022-09-30T19:23:37.682Z,25.00
2022-09-30T19:26:14.229Z,25.00
2022-09-30T19:28:45.535Z,25.00
2022-09-30T19:31:19.098Z,25.00
2022-09-30T19:33:56.586Z,25.00
2022-09-30T19:36:24.420Z,25.00
2022-09-30T19:39:06.165Z,25.00
2022-09-30T19:41:30.713Z,25.00
2022-09-30T19:44:05.837Z,25.00
2022-09-30T19:46:35.570Z,25.00
2022-09-30T19:49:06.611Z,24.90
2022-09-30T19:51:39.302Z,25.00
2022-09-30T19:54:10.078Z,25.00
2022-09-30T19:56:40.914Z,24.90
2022-09-30T19:59:11.662Z,25.00
2022-09-30T20:01:42.332Z,24.90
2022-09-30T20:04:14.394Z,25.00
2022-09-30T20:06:44.957Z,25.00
2022-09-30T20:09:16.203Z,24.90
2022-09-30T20:11:46.712Z,24.90
2022-09-30T20:14:18.588Z,24.90
2022-09-30T20:16:52.951Z,24.90
2022-09-30T20:19:24.099Z,24.90
2022-09-30T20:21:55.723Z,24.90
2022-09-30T20:24:27.151Z,24.90
2022-09-30T20:26:57.746Z,24.90
2022-09-30T20:29:28.994Z,25.00
2022-09-30T20:32:01.471Z,25.00
2022-09-30T20:34:35.514Z,25.00
2022-09-30T20:37:04.017Z,24.90
2022-09-30T20:39:35.719Z,24.90
2022-09-30T20:42:06.938Z,24.90
2022-09-30T20:44:37.546Z,25.00
2022-09-30T20:47:08.143Z,24.90
2022-09-30T20:49:38.881Z,24.90
2022-09-30T20:52:09.717Z,24.90
2022-09-30T20:54:40.329Z,24.90
2022-09-30T20:57:10.846Z,24.90
2022-09-30T20:59:41.618Z,25.00
2022-09-30T21:02:15.391Z,25.00
2022-09-30T21:04:49.523Z,25.00
2022-09-30T21:07:18.116Z,25.00
2022-09-30T21:09:50.078Z,25.00
2022-09-30T21:12:22.615Z,25.00
2022-09-30T21:14:53.270Z,24.90
2022-09-30T21:17:23.928Z,25.00
2022-09-30T21:19:54.622Z,24.90
2022-09-30T21:22:25.336Z,25.00
2022-09-30T21:24:56.083Z,24.90
2022-09-30T21:27:26.677Z,24.90
2022-09-30T21:29:57.702Z,25.00
2022-09-30T21:32:28.368Z,25.00
2022-09-30T21:34:59.073Z,24.90
2022-09-30T21:37:29.907Z,24.90
2022-09-30T21:40:00.588Z,24.90
2022-09-30T21:42:31.442Z,25.00
2022-09-30T21:45:02.223Z,25.00
2022-09-30T21:47:32.978Z,25.00
2022-09-30T21:50:04.381Z,25.00
2022-09-30T21:52:35.087Z,25.00
2022-09-30T21:55:07.294Z,25.00
2022-09-30T21:57:38.064Z,25.00
2022-09-30T22:00:08.972Z,25.00
2022-09-30T22:02:39.940Z,25.00
2022-09-30T22:05:11.090Z,25.00
2022-09-30T22:07:43.248Z,25.00
2022-09-30T22:10:13.839Z,25.00
2022-09-30T22:12:44.687Z,25.00
2022-09-30T22:15:15.394Z,25.00
2022-09-30T22:17:45.992Z,25.00
2022-09-30T22:20:17.151Z,25.00
2022-09-30T22:22:49.491Z,25.00
2022-09-30T22:25:21.489Z,25.10
2022-09-30T22:27:52.283Z,25.00
2022-09-30T22:30:22.890Z,25.10
2022-09-30T22:32:54.853Z,25.10
2022-09-30T22:35:26.825Z,25.10
2022-09-30T22:37:58.690Z,25.10
2022-09-30T22:40:29.305Z,25.10
2022-09-30T22:42:59.831Z,25.10
2022-09-30T22:45:30.685Z,25.10
2022-09-30T22:48:01.485Z,25.10
2022-09-30T22:50:32.196Z,25.10
2022-09-30T22:53:02.928Z,25.10
2022-09-30T22:55:34.431Z,25.10
2022-09-30T22:58:04.970Z,25.10
2022-09-30T23:00:35.815Z,25.10
2022-09-30T23:03:07.226Z,25.10
2022-09-30T23:05:37.842Z,25.10
2022-09-30T23:08:08.643Z,25.10
2022-09-30T23:10:40.637Z,25.10
2022-09-30T23:13:11.842Z,25.10
2022-09-30T23:15:42.477Z,25.10
2022-09-30T23:18:13.215Z,25.10
2022-09-30T23:20:43.822Z,25.10
2022-09-30T23:23:15.384Z,25.20
2022-09-30T23:25:45.986Z,25.10
2022-09-30T23:28:16.620Z,25.20
2022-09-30T23:30:47.180Z,25.20
2022-09-30T23:33:17.999Z,25.10
2022-09-30T23:35:49.969Z,25.20
2022-09-30T23:38:20.875Z,25.20
2022-09-30T23:40:52.098Z,25.20
2022-09-30T23:43:23.412Z,25.20
2022-09-30T23:45:54.146Z,25.20
2022-09-30T23:48:24.825Z,25.20
2022-09-30T23:50:55.955Z,25.20
2022-09-30T23:53:27.083Z,25.20
2022-09-30T23:56:00.112Z,25.20
2022-09-30T23:58:31.245Z,25.20
